Terminal Aerodrome Forecast
Issued by NWS Charleston, WV

Current Version | Previous Version | Graphics & Text | Print | Product List | Glossary On
Versions: 1 2 3 4 5 6 7 8 9 10 11 12 13 14 15 16 17 18 19 20 21 22 23 24 25
982
FTUS41 KRLX 291509 AAA
TAFPKB
TAF AMD
KPKB 291509Z 2915/3012 21006KT P6SM OVC060
      TEMPO 2915/2916 3SM SHRA BKN040
     FM291800 22004KT P6SM VCTS SCT040CB
     FM292000 22004KT P6SM SCT150=

USA.gov is the U.S. government's official web portal to all federal, state and local government web resources and services.